createdAt,value
2023-05-16T00:00:01.213Z,99542.20
2023-05-16T00:02:32.010Z,99547.01
2023-05-16T00:05:04.599Z,99547.37
2023-05-16T00:07:35.856Z,99549.09
2023-05-16T00:10:07.431Z,99547.72
2023-05-16T00:12:39.644Z,99547.71
2023-05-16T00:15:14.272Z,99548.75
2023-05-16T00:17:46.791Z,99550.30
2023-05-16T00:20:19.151Z,99554.75
2023-05-16T00:22:49.616Z,99559.55
2023-05-16T00:25:20.130Z,99559.39
2023-05-16T00:27:50.739Z,99559.74
2023-05-16T00:30:22.869Z,99559.55
2023-05-16T00:32:57.062Z,99561.96
2023-05-16T00:35:27.744Z,99561.45
2023-05-16T00:37:58.313Z,99561.80
2023-05-16T00:40:29.055Z,99562.65
2023-05-16T00:42:59.851Z,99559.73
2023-05-16T00:45:30.998Z,99562.47
2023-05-16T00:48:01.664Z,99561.44
2023-05-16T00:50:34.499Z,99560.23
2023-05-16T00:53:05.458Z,99563.51
2023-05-16T00:55:36.273Z,99565.75
2023-05-16T00:58:42.977Z,99564.89
2023-05-16T01:01:14.390Z,99564.70
2023-05-16T01:03:47.188Z,99565.90
2023-05-16T01:06:17.701Z,99566.60
2023-05-16T01:08:48.253Z,99565.55
2023-05-16T01:11:28.085Z,99563.83
2023-05-16T01:14:10.818Z,99564.53
2023-05-16T01:16:48.923Z,99567.96
2023-05-16T01:19:44.128Z,99573.98
2023-05-16T01:22:47.777Z,99577.41
2023-05-16T01:25:33.812Z,99578.61
2023-05-16T01:28:05.725Z,99585.14
2023-05-16T01:30:38.077Z,99586.33
2023-05-16T01:33:08.914Z,99583.42
2023-05-16T01:35:45.665Z,99582.05
2023-05-16T01:38:21.859Z,99583.75
2023-05-16T01:40:59.347Z,99591.45
2023-05-16T01:43:38.377Z,99595.73
2023-05-16T01:46:21.795Z,99601.92
2023-05-16T01:49:17.316Z,99602.11
2023-05-16T01:51:55.430Z,99605.58
2023-05-16T01:54:31.512Z,99607.63
2023-05-16T01:57:05.431Z,99611.06
2023-05-16T01:59:37.029Z,99612.09
2023-05-16T02:02:07.534Z,99611.73
2023-05-16T02:04:38.022Z,99614.69
2023-05-16T02:07:08.722Z,99615.18
2023-05-16T02:09:39.175Z,99622.02
2023-05-16T02:12:11.547Z,99625.27
2023-05-16T02:14:42.171Z,99626.80
2023-05-16T02:17:12.720Z,99627.33
2023-05-16T02:19:43.788Z,99630.75
2023-05-16T02:22:13.730Z,99631.44
2023-05-16T02:24:45.110Z,99627.82
2023-05-16T02:27:15.906Z,99628.17
2023-05-16T02:29:46.466Z,99630.23
2023-05-16T02:32:17.718Z,99627.47
2023-05-16T02:34:48.247Z,99626.61
2023-05-16T02:37:18.780Z,99624.71
2023-05-16T02:39:49.237Z,99624.02
2023-05-16T02:42:19.949Z,99626.91
2023-05-16T02:44:50.416Z,99630.70
2023-05-16T02:47:21.856Z,99634.97
2023-05-16T02:49:53.372Z,99636.66
2023-05-16T02:52:24.015Z,99640.77
2023-05-16T02:57:28.133Z,99637.85
2023-05-16T02:59:59.864Z,99639.92
2023-05-16T03:02:30.817Z,99638.88
2023-05-16T03:05:01.702Z,99641.13
2023-05-16T03:07:32.170Z,99639.56
2023-05-16T03:10:02.619Z,99643.52
2023-05-16T03:12:33.155Z,99643.34
2023-05-16T03:15:04.190Z,99639.75
2023-05-16T03:17:34.796Z,99644.55
2023-05-16T03:20:09.412Z,99648.33
2023-05-16T03:22:40.525Z,99645.92
2023-05-16T03:25:11.758Z,99645.75
2023-05-16T03:27:44.767Z,99639.91
2023-05-16T03:30:17.079Z,99638.88
2023-05-16T03:32:48.991Z,99638.70
2023-05-16T03:35:19.681Z,99644.70
2023-05-16T03:37:50.247Z,99649.16
2023-05-16T03:40:23.007Z,99650.53
2023-05-16T03:42:53.426Z,99655.17
2023-05-16T03:45:24.169Z,99656.03
2023-05-16T03:47:54.818Z,99655.69
2023-05-16T03:50:25.867Z,99660.33
2023-05-16T03:52:56.577Z,99663.93
2023-05-16T03:55:27.364Z,99666.33
2023-05-16T03:57:58.317Z,99671.98
2023-05-16T04:00:29.213Z,99675.41
2023-05-16T04:02:59.763Z,99679.52
2023-05-16T04:05:30.623Z,99687.58
2023-05-16T04:08:01.334Z,99696.66
2023-05-16T04:10:32.152Z,99703.52
2023-05-16T04:13:02.550Z,99710.55
2023-05-16T04:15:33.097Z,99713.99
2023-05-16T04:18:05.293Z,99712.80
2023-05-16T04:20:36.730Z,99719.35
2023-05-16T04:23:07.195Z,99723.66
2023-05-16T04:25:37.707Z,99730.88
2023-05-16T04:28:08.291Z,99732.75
2023-05-16T04:30:39.044Z,99735.84
2023-05-16T04:33:09.538Z,99738.94
2023-05-16T04:35:41.509Z,99740.50
2023-05-16T04:38:12.075Z,99742.05
2023-05-16T04:40:43.333Z,99740.02
2023-05-16T04:43:13.802Z,99730.92
2023-05-16T04:45:44.324Z,99722.86
2023-05-16T04:48:15.514Z,99707.91
2023-05-16T04:50:46.012Z,99702.28
2023-05-16T04:53:16.549Z,99704.89
2023-05-16T04:55:47.527Z,99712.27
2023-05-16T04:58:18.049Z,99720.36
2023-05-16T05:00:48.538Z,99727.25
2023-05-16T05:03:19.190Z,99737.55
2023-05-16T05:05:49.916Z,99745.61
2023-05-16T05:08:20.705Z,99746.81
2023-05-16T05:10:51.626Z,99752.30
2023-05-16T05:13:22.144Z,99757.80
2023-05-16T05:15:53.151Z,99766.38
2023-05-16T05:18:23.707Z,99775.14
2023-05-16T05:20:54.199Z,99782.88
2023-05-16T05:23:24.878Z,99784.98
2023-05-16T05:25:55.476Z,99790.02
2023-05-16T05:28:25.899Z,99793.61
2023-05-16T05:30:56.351Z,99797.06
2023-05-16T05:33:29.735Z,99800.52
2023-05-16T05:36:03.293Z,99803.42
2023-05-16T05:38:34.562Z,99804.64
2023-05-16T05:41:05.006Z,99806.73
2023-05-16T05:43:35.568Z,99812.05
2023-05-16T05:46:06.736Z,99818.22
2023-05-16T05:48:37.447Z,99818.58
2023-05-16T05:51:08.280Z,99814.13
2023-05-16T05:53:38.913Z,99815.00
2023-05-16T05:56:09.633Z,99809.36
2023-05-16T05:58:41.900Z,99810.23
2023-05-16T06:01:13.271Z,99808.34
2023-05-16T06:03:44.020Z,99804.40
2023-05-16T06:06:15.660Z,99807.35
2023-05-16T06:08:46.296Z,99803.75
2023-05-16T06:11:16.758Z,99808.73
2023-05-16T06:13:47.271Z,99812.35
2023-05-16T06:16:17.985Z,99814.09
2023-05-16T06:18:48.949Z,99815.29
2023-05-16T06:21:19.558Z,99813.77
2023-05-16T06:23:50.110Z,99811.53
2023-05-16T06:26:22.673Z,99816.53
2023-05-16T06:28:53.305Z,99818.80
2023-05-16T06:31:23.836Z,99822.40
2023-05-16T06:33:54.475Z,99825.70
2023-05-16T06:36:25.370Z,99826.03
2023-05-16T06:38:55.864Z,99833.08
2023-05-16T06:41:26.423Z,99837.89
2023-05-16T06:43:56.936Z,99837.05
2023-05-16T06:46:38.369Z,99834.64
2023-05-16T06:49:09.011Z,99838.42
2023-05-16T06:51:40.614Z,99840.84
2023-05-16T06:54:11.148Z,99849.63
2023-05-16T06:56:42.012Z,99850.67
2023-05-16T06:59:12.479Z,99849.45
2023-05-16T07:01:43.072Z,99852.77
2023-05-16T07:04:13.661Z,99856.55
2023-05-16T07:06:44.347Z,99853.13
2023-05-16T07:09:14.850Z,99849.86
2023-05-16T07:11:45.345Z,99848.48
2023-05-16T07:14:15.963Z,99852.80
2023-05-16T07:16:46.875Z,99855.73
2023-05-16T07:19:17.462Z,99847.46
2023-05-16T07:21:47.998Z,99842.65
2023-05-16T07:24:18.554Z,99834.38
2023-05-16T07:26:49.118Z,99834.20
2023-05-16T07:29:19.774Z,99836.79
2023-05-16T07:31:50.238Z,99837.98
2023-05-16T07:34:20.772Z,99835.39
2023-05-16T07:36:54.278Z,99841.25
2023-05-16T07:39:24.753Z,99841.26
2023-05-16T07:41:55.266Z,99845.40
2023-05-16T07:44:25.775Z,99846.77
2023-05-16T07:46:56.253Z,99849.00
2023-05-16T07:49:27.096Z,99846.24
2023-05-16T07:51:57.618Z,99848.83
2023-05-16T07:54:28.099Z,99852.61
2023-05-16T07:56:58.637Z,99855.71
2023-05-16T07:59:29.550Z,99855.88
2023-05-16T08:02:00.430Z,99855.00
2023-05-16T08:04:31.016Z,99857.23
2023-05-16T08:07:01.536Z,99861.70
2023-05-16T08:09:32.050Z,99864.13
2023-05-16T08:12:03.590Z,99867.37
2023-05-16T08:14:33.114Z,99869.44
2023-05-16T08:17:03.632Z,99877.05
2023-05-16T08:19:34.135Z,99877.73
2023-05-16T08:22:07.863Z,99874.80
2023-05-16T08:24:38.676Z,99882.38
2023-05-16T08:27:09.708Z,99886.17
2023-05-16T08:29:40.220Z,99894.96
2023-05-16T08:32:11.388Z,99903.03
2023-05-16T08:34:42.551Z,99904.59
2023-05-16T08:37:13.754Z,99907.01
2023-05-16T08:39:45.027Z,99909.73
2023-05-16T08:42:15.993Z,99908.53
2023-05-16T08:44:46.597Z,99903.54
2023-05-16T08:47:22.914Z,99903.86
2023-05-16T08:49:57.164Z,99906.61
2023-05-16T08:52:33.414Z,99908.34
2023-05-16T08:55:10.963Z,99913.35
2023-05-16T08:57:43.675Z,99917.30
2023-05-16T09:00:16.266Z,99923.34
2023-05-16T09:02:47.285Z,99930.75
2023-05-16T09:05:19.040Z,99929.55
2023-05-16T09:07:49.490Z,99929.02
2023-05-16T09:10:20.318Z,99933.52
2023-05-16T09:12:51.033Z,99936.29
2023-05-16T09:15:22.493Z,99937.48
2023-05-16T09:17:53.065Z,99941.79
2023-05-16T09:20:23.812Z,99947.32
2023-05-16T09:22:55.955Z,99941.61
2023-05-16T09:25:30.774Z,99936.27
2023-05-16T09:28:03.535Z,99938.00
2023-05-16T09:30:37.235Z,99942.30
2023-05-16T09:33:09.316Z,99948.34
2023-05-16T09:35:45.313Z,99953.50
2023-05-16T09:38:19.909Z,99958.30
2023-05-16T09:40:51.433Z,99963.66
2023-05-16T09:43:26.338Z,99976.94
2023-05-16T09:46:00.499Z,99980.36
2023-05-16T09:48:31.318Z,99975.19
2023-05-16T09:51:04.768Z,99976.91
2023-05-16T09:53:36.086Z,99978.98
2023-05-16T09:56:08.888Z,99981.70
2023-05-16T09:58:40.714Z,99979.48
2023-05-16T10:01:12.376Z,99988.23
2023-05-16T10:03:44.228Z,99996.51
2023-05-16T10:06:16.728Z,99999.58
2023-05-16T10:08:48.806Z,100000.45
2023-05-16T10:11:21.761Z,99994.89
2023-05-16T10:13:54.198Z,99990.38
2023-05-16T10:16:25.615Z,99988.29
2023-05-16T10:18:57.106Z,99988.41
2023-05-16T10:21:29.709Z,99982.55
2023-05-16T10:24:04.986Z,99983.02
2023-05-16T10:26:36.319Z,99981.30
2023-05-16T10:29:08.213Z,99979.73
2023-05-16T10:31:39.443Z,99983.34
2023-05-16T10:34:10.375Z,99990.59
2023-05-16T10:36:41.487Z,99988.21
2023-05-16T10:39:13.019Z,99984.93
2023-05-16T10:41:44.291Z,99988.91
2023-05-16T10:44:18.237Z,99993.39
2023-05-16T10:46:49.509Z,99989.08
2023-05-16T10:49:27.755Z,99986.13
2023-05-16T10:52:13.368Z,99980.05
2023-05-16T10:54:45.533Z,99980.05
2023-05-16T10:57:22.122Z,99981.79
2023-05-16T10:59:53.944Z,99980.91
2023-05-16T11:02:29.947Z,99980.56
2023-05-16T11:05:02.204Z,99981.59
2023-05-16T11:07:36.716Z,99981.90
2023-05-16T11:10:09.586Z,99982.92
2023-05-16T11:12:43.974Z,99977.23
2023-05-16T11:15:23.189Z,99979.63
2023-05-16T11:18:04.937Z,99975.64
2023-05-16T11:20:37.173Z,99981.16
2023-05-16T11:23:27.577Z,99972.54
2023-05-16T11:26:00.826Z,99975.66
2023-05-16T11:28:31.493Z,99981.38
2023-05-16T11:31:05.661Z,99980.85
2023-05-16T11:33:37.144Z,99982.77
2023-05-16T11:38:44.180Z,99975.38
2023-05-16T11:41:17.709Z,99972.27
2023-05-16T11:43:48.240Z,99970.03
2023-05-16T11:46:18.964Z,99967.45
2023-05-16T11:48:49.636Z,99969.86
2023-05-16T11:51:23.176Z,99977.11
2023-05-16T11:53:53.861Z,99980.01
2023-05-16T11:56:24.925Z,99985.02
2023-05-16T11:58:56.435Z,99986.06
2023-05-16T12:01:28.789Z,99989.02
2023-05-16T12:03:59.923Z,99988.69
2023-05-16T12:06:31.521Z,99991.11
2023-05-16T12:09:04.156Z,99994.42
2023-05-16T12:11:34.688Z,99997.55
2023-05-16T12:14:05.392Z,99993.74
2023-05-16T12:16:37.824Z,99993.73
2023-05-16T12:19:09.643Z,99998.73
2023-05-16T12:21:39.770Z,99993.91
2023-05-16T12:24:13.336Z,99994.63
2023-05-16T12:26:44.728Z,99988.58
2023-05-16T12:29:15.991Z,99990.48
2023-05-16T12:31:47.349Z,99991.54
2023-05-16T12:34:23.398Z,99991.23
2023-05-16T12:36:57.471Z,99990.36
2023-05-16T12:39:27.954Z,99998.29
2023-05-16T12:41:58.465Z,100000.71
2023-05-16T12:44:32.596Z,100003.32
2023-05-16T12:47:03.396Z,100002.65
2023-05-16T12:49:35.722Z,100007.48
2023-05-16T12:52:08.035Z,100002.30
2023-05-16T12:54:38.882Z,100006.45
2023-05-16T12:57:10.349Z,100009.73
2023-05-16T12:59:40.899Z,100014.21
2023-05-16T13:02:13.876Z,100017.32
2023-05-16T13:04:44.460Z,100016.45
2023-05-16T13:07:15.257Z,100016.11
2023-05-16T13:09:45.836Z,100014.91
2023-05-16T13:12:16.320Z,100013.05
2023-05-16T13:14:46.828Z,100013.55
2023-05-16T13:17:17.823Z,100015.11
2023-05-16T13:19:49.050Z,100008.59
2023-05-16T13:22:19.911Z,100006.52
2023-05-16T13:24:50.748Z,100003.09
2023-05-16T13:27:21.251Z,100007.41
2023-05-16T13:29:51.789Z,100014.30
2023-05-16T13:32:22.437Z,100020.16
2023-05-16T13:34:53.021Z,100019.13
2023-05-16T13:37:24.653Z,100016.55
2023-05-16T13:39:56.134Z,100021.73
2023-05-16T13:42:26.930Z,100022.59
2023-05-16T13:44:57.412Z,100029.64
2023-05-16T13:47:28.004Z,100031.73
2023-05-16T13:49:58.561Z,100036.36
2023-05-16T13:52:29.087Z,100042.77
2023-05-16T13:54:59.622Z,100047.77
2023-05-16T13:57:30.624Z,100046.05
2023-05-16T14:02:43.148Z,100056.05
2023-05-16T14:05:14.064Z,100052.09
2023-05-16T14:07:46.768Z,100053.48
2023-05-16T14:10:17.606Z,100051.93
2023-05-16T14:12:49.234Z,100052.45
2023-05-16T14:15:19.773Z,100049.16
2023-05-16T14:17:50.387Z,100048.82
2023-05-16T14:20:21.015Z,100046.91
2023-05-16T14:22:51.573Z,100042.79
2023-05-16T14:25:22.103Z,100044.52
2023-05-16T14:27:52.666Z,100040.37
2023-05-16T14:30:23.834Z,100041.73
2023-05-16T14:32:54.486Z,100043.80
2023-05-16T14:35:25.240Z,100040.86
2023-05-16T14:37:55.876Z,100040.86
2023-05-16T14:40:26.631Z,100037.77
2023-05-16T14:42:57.242Z,100034.99
2023-05-16T14:45:28.303Z,100036.38
2023-05-16T14:47:59.528Z,100034.66
2023-05-16T14:50:30.072Z,100031.02
2023-05-16T14:53:01.076Z,100029.98
2023-05-16T14:55:31.984Z,100024.98
2023-05-16T14:58:02.563Z,100021.18
2023-05-16T15:00:33.112Z,100024.11
2023-05-16T15:03:03.710Z,100027.05
2023-05-16T15:05:34.802Z,100028.06
2023-05-16T15:08:06.036Z,100031.52
2023-05-16T15:10:36.963Z,100038.60
2023-05-16T15:13:07.462Z,100042.55
2023-05-16T15:15:38.935Z,100043.74
2023-05-16T15:18:11.266Z,100052.34
2023-05-16T15:20:42.168Z,100056.81
2023-05-16T15:23:13.891Z,100057.84
2023-05-16T15:25:44.995Z,100058.54
2023-05-16T15:28:15.604Z,100059.58
2023-05-16T15:30:46.181Z,100066.11
2023-05-16T15:33:16.739Z,100064.38
2023-05-16T15:35:48.586Z,100063.16
2023-05-16T15:38:19.127Z,100065.25
2023-05-16T15:40:52.786Z,100069.73
2023-05-16T15:43:31.826Z,100070.58
2023-05-16T15:46:02.380Z,100074.69
2023-05-16T15:48:33.062Z,100078.11
2023-05-16T15:51:03.748Z,100078.44
2023-05-16T15:53:34.241Z,100079.13
2023-05-16T15:56:04.795Z,100078.97
2023-05-16T15:58:35.284Z,100078.27
2023-05-16T16:01:06.054Z,100073.98
2023-05-16T16:03:36.754Z,100072.06
2023-05-16T16:06:07.741Z,100068.45
2023-05-16T16:08:38.273Z,100067.10
2023-05-16T16:11:09.255Z,100063.50
2023-05-16T16:13:39.757Z,100066.24
2023-05-16T16:16:10.591Z,100067.10
2023-05-16T16:18:41.130Z,100071.23
2023-05-16T16:21:12.114Z,100079.31
2023-05-16T16:23:43.244Z,100076.91
2023-05-16T16:26:13.744Z,100077.59
2023-05-16T16:28:44.243Z,100073.45
2023-05-16T16:31:15.128Z,100075.35
2023-05-16T16:33:49.065Z,100073.46
2023-05-16T16:36:19.884Z,100077.24
2023-05-16T16:38:50.424Z,100083.07
2023-05-16T16:41:20.956Z,100088.23
2023-05-16T16:43:53.008Z,100094.27
2023-05-16T16:46:23.738Z,100096.34
2023-05-16T16:48:54.919Z,100092.38
2023-05-16T16:51:25.589Z,100092.02
2023-05-16T16:53:58.106Z,100094.78
2023-05-16T16:56:30.064Z,100093.91
2023-05-16T16:59:00.590Z,100099.60
2023-05-16T17:01:32.101Z,100100.09
2023-05-16T17:04:03.104Z,100106.44
2023-05-16T17:06:33.599Z,100110.70
2023-05-16T17:09:06.900Z,100117.06
2023-05-16T17:11:40.494Z,100116.52
2023-05-16T17:14:11.882Z,100120.49
2023-05-16T17:16:42.472Z,100121.52
2023-05-16T17:19:13.057Z,100121.98
2023-05-16T17:21:44.520Z,100124.74
2023-05-16T17:24:15.707Z,100125.61
2023-05-16T17:26:46.235Z,100125.27
2023-05-16T17:29:16.741Z,100129.36
2023-05-16T17:31:47.201Z,100127.79
2023-05-16T17:34:17.727Z,100133.30
2023-05-16T17:36:48.393Z,100138.08
2023-05-16T17:39:20.056Z,100138.77
2023-05-16T17:41:50.648Z,100136.88
2023-05-16T17:44:22.174Z,100138.95
2023-05-16T17:46:53.764Z,100141.52
2023-05-16T17:49:25.593Z,100145.65
2023-05-16T17:51:58.207Z,100145.12
2023-05-16T17:54:31.153Z,100149.23
2023-05-16T17:57:02.861Z,100152.50
2023-05-16T17:59:33.404Z,100154.05
2023-05-16T18:02:04.202Z,100157.15
2023-05-16T18:04:34.683Z,100157.13
2023-05-16T18:07:07.283Z,100155.77
2023-05-16T18:09:37.850Z,100158.33
2023-05-16T18:12:09.606Z,100163.65
2023-05-16T18:14:40.173Z,100163.98
2023-05-16T18:17:10.673Z,100161.91
2023-05-16T18:19:41.432Z,100161.73
2023-05-16T18:22:13.228Z,100162.06
2023-05-16T18:24:44.718Z,100161.52
2023-05-16T18:27:16.171Z,100164.46
2023-05-16T18:29:46.765Z,100166.35
2023-05-16T18:32:17.382Z,100167.21
2023-05-16T18:34:48.070Z,100174.44
2023-05-16T18:37:18.708Z,100178.73
2023-05-16T18:39:49.697Z,100178.90
2023-05-16T18:42:20.493Z,100180.12
2023-05-16T18:44:51.533Z,100180.45
2023-05-16T18:47:22.294Z,100184.52
2023-05-16T18:49:53.222Z,100189.30
2023-05-16T18:52:23.818Z,100189.98
2023-05-16T18:54:54.288Z,100193.80
2023-05-16T18:57:24.834Z,100190.18
2023-05-16T18:59:56.549Z,100198.09
2023-05-16T19:02:37.911Z,100200.32
2023-05-16T19:05:14.465Z,100205.64
2023-05-16T19:07:45.393Z,100206.84
2023-05-16T19:10:15.897Z,100214.73
2023-05-16T19:12:49.121Z,100218.30
2023-05-16T19:15:19.886Z,100216.25
2023-05-16T19:17:50.444Z,100218.50
2023-05-16T19:20:21.099Z,100220.74
2023-05-16T19:22:51.665Z,100219.69
2023-05-16T19:25:22.282Z,100226.23
2023-05-16T19:27:52.830Z,100225.89
2023-05-16T19:30:24.127Z,100224.15
2023-05-16T19:32:54.607Z,100228.60
2023-05-16T19:35:25.447Z,100228.42
2023-05-16T19:37:56.481Z,100232.50
2023-05-16T19:40:27.117Z,100238.52
2023-05-16T19:42:57.744Z,100234.05
2023-05-16T19:45:28.404Z,100234.20
2023-05-16T19:47:59.251Z,100237.98
2023-05-16T19:50:30.042Z,100238.16
2023-05-16T19:53:00.578Z,100243.14
2023-05-16T19:55:31.620Z,100242.61
2023-05-16T19:58:02.358Z,100242.08
2023-05-16T20:00:33.150Z,100245.48
2023-05-16T20:03:03.765Z,100243.10
2023-05-16T20:05:34.627Z,100239.50
2023-05-16T20:08:05.257Z,100238.30
2023-05-16T20:10:36.280Z,100238.29
2023-05-16T20:13:06.827Z,100239.85
2023-05-16T20:15:37.627Z,100240.87
2023-05-16T20:18:09.737Z,100242.23
2023-05-16T20:20:40.386Z,100247.36
2023-05-16T20:23:10.942Z,100247.66
2023-05-16T20:25:41.520Z,100240.44
2023-05-16T20:28:12.047Z,100238.90
2023-05-16T20:30:42.550Z,100244.03
2023-05-16T20:33:13.083Z,100242.32
2023-05-16T20:35:43.601Z,100250.23
2023-05-16T20:38:14.172Z,100257.77
2023-05-16T20:40:44.689Z,100255.89
2023-05-16T20:43:15.168Z,100255.20
2023-05-16T20:45:46.231Z,100255.35
2023-05-16T20:48:16.981Z,100251.05
2023-05-16T20:50:47.731Z,100246.59
2023-05-16T20:53:18.623Z,100245.92
2023-05-16T20:55:49.108Z,100248.14
2023-05-16T20:58:20.053Z,100252.94
2023-05-16T21:00:50.956Z,100258.44
2023-05-16T21:03:22.586Z,100264.78
2023-05-16T21:05:54.252Z,100271.80
2023-05-16T21:08:24.754Z,100274.87
2023-05-16T21:10:55.269Z,100276.73
2023-05-16T21:13:25.931Z,100280.18
2023-05-16T21:15:56.501Z,100282.25
2023-05-16T21:18:27.453Z,100278.68
2023-05-16T21:20:58.046Z,100276.95
2023-05-16T21:23:28.724Z,100278.83
2023-05-16T21:25:59.289Z,100276.73
2023-05-16T21:28:31.183Z,100278.98
2023-05-16T21:31:03.331Z,100277.73
2023-05-16T21:33:33.853Z,100278.91
2023-05-16T21:36:04.761Z,100283.16
2023-05-16T21:38:35.284Z,100281.25
2023-05-16T21:41:05.943Z,100276.11
2023-05-16T21:43:36.458Z,100274.77
2023-05-16T21:46:07.118Z,100271.30
2023-05-16T21:48:38.330Z,100272.15
2023-05-16T21:51:09.098Z,100270.42
2023-05-16T21:53:39.588Z,100273.17
2023-05-16T21:56:10.186Z,100272.14
2023-05-16T21:58:42.389Z,100275.03
2023-05-16T22:01:16.691Z,100272.92
2023-05-16T22:03:47.437Z,100272.53
2023-05-16T22:06:18.177Z,100271.17
2023-05-16T22:08:48.732Z,100274.09
2023-05-16T22:11:19.237Z,100277.17
2023-05-16T22:13:50.708Z,100283.16
2023-05-16T22:16:21.900Z,100280.06
2023-05-16T22:18:52.760Z,100280.39
2023-05-16T22:21:23.630Z,100279.16
2023-05-16T22:23:54.579Z,100280.67
2023-05-16T22:26:25.102Z,100279.62
2023-05-16T22:28:55.616Z,100281.00
2023-05-16T22:31:26.285Z,100285.30
2023-05-16T22:33:56.868Z,100280.80
2023-05-16T22:36:27.441Z,100284.19
2023-05-16T22:38:58.147Z,100282.48
2023-05-16T22:41:29.143Z,100280.56
2023-05-16T22:43:59.776Z,100284.48
2023-05-16T22:46:30.447Z,100284.10
2023-05-16T22:49:00.991Z,100282.52
2023-05-16T22:51:31.571Z,100283.33
2023-05-16T22:54:02.054Z,100284.17
2023-05-16T22:56:32.756Z,100282.61
2023-05-16T22:59:03.269Z,100280.37
2023-05-16T23:01:33.835Z,100278.99
2023-05-16T23:04:04.909Z,100276.06
2023-05-16T23:06:35.658Z,100271.59
2023-05-16T23:09:06.336Z,100275.01
2023-05-16T23:11:36.944Z,100279.27
2023-05-16T23:14:07.419Z,100283.59
2023-05-16T23:16:37.925Z,100286.18
2023-05-16T23:19:09.828Z,100283.26
2023-05-16T23:21:40.617Z,100282.55
2023-05-16T23:24:11.213Z,100282.52
2023-05-16T23:26:41.747Z,100281.84
2023-05-16T23:29:12.583Z,100277.73
2023-05-16T23:31:43.202Z,100275.16
2023-05-16T23:34:13.719Z,100274.85
2023-05-16T23:36:44.248Z,100278.64
2023-05-16T23:39:14.732Z,100275.20
2023-05-16T23:41:45.305Z,100279.83
2023-05-16T23:44:15.860Z,100283.94
2023-05-16T23:46:46.368Z,100291.46
2023-05-16T23:49:17.301Z,100291.95
2023-05-16T23:51:57.527Z,100291.07
2023-05-16T23:54:28.922Z,100294.65
2023-05-16T23:56:59.414Z,100288.98
2023-05-16T23:59:29.906Z,100288.65
